Time;durP1;ratioP1;P1;durP2;ratioP2;P2;SDS_P1;SDS_P2;PMS_P1;PMS_P2;Temp;Humidity;BMP_temperature;BMP_pressure;BME280_temperature;BME280_humidity;BME280_pressure;Samples;Min_cycle;Max_cycle;Signal;HPM_P1;HPM_P2
2021/06/30 00:00:18;;;;;;;11.45;4.35;;;16.40;99.90;;;;;;5042505;28;20064;-72
2021/06/30 00:02:43;;;;;;;11.23;4.45;;;16.40;99.90;;;;;;5036858;28;20049;-72
2021/06/30 00:05:09;;;;;;;7.22;4.30;;;16.40;99.90;;;;;;5034792;28;20143;-72
2021/06/30 00:07:39;;;;;;;6.15;3.70;;;16.40;99.90;;;;;;5041329;28;20021;-72
2021/06/30 00:10:06;;;;;;;10.80;3.67;;;16.40;99.90;;;;;;5042511;28;20030;-71
2021/06/30 00:12:31;;;;;;;10.88;4.28;;;16.40;99.90;;;;;;5036954;28;20466;-72
2021/06/30 00:14:57;;;;;;;6.15;3.40;;;16.50;99.90;;;;;;5043151;28;20053;-72
2021/06/30 00:17:23;;;;;;;7.30;3.55;;;16.40;99.90;;;;;;5042408;28;20025;-72
2021/06/30 00:19:49;;;;;;;8.70;3.63;;;16.40;99.90;;;;;;5041047;28;20059;-72
2021/06/30 00:22:14;;;;;;;7.18;4.10;;;16.30;99.90;;;;;;5042150;28;20029;-71
2021/06/30 00:24:40;;;;;;;8.60;4.15;;;16.30;99.90;;;;;;5039565;28;20044;-72
2021/06/30 00:27:08;;;;;;;6.00;3.50;;;16.30;99.90;;;;;;5022191;28;20078;-71
2021/06/30 00:29:36;;;;;;;6.10;4.10;;;16.30;99.90;;;;;;5022483;28;20033;-71
2021/06/30 00:32:02;;;;;;;7.45;4.32;;;16.30;99.90;;;;;;5043126;28;20056;-71
2021/06/30 00:34:27;;;;;;;7.88;4.40;;;16.20;99.90;;;;;;5037137;28;20447;-71
2021/06/30 00:36:58;;;;;;;6.38;4.15;;;16.20;99.90;;;;;;5036685;28;20033;-71
2021/06/30 00:39:23;;;;;;;6.53;3.88;;;16.10;99.90;;;;;;5035983;28;20124;-72
2021/06/30 00:41:49;;;;;;;10.93;4.80;;;16.10;99.90;;;;;;5036721;28;20033;-71
2021/06/30 00:44:15;;;;;;;8.65;4.72;;;16.10;99.90;;;;;;5036811;28;20034;-71
2021/06/30 00:46:40;;;;;;;10.38;4.40;;;16.10;99.90;;;;;;5034830;28;20036;-72
2021/06/30 00:49:07;;;;;;;10.05;3.72;;;16.20;99.90;;;;;;5038072;28;20033;-72
2021/06/30 00:51:32;;;;;;;10.68;4.60;;;16.20;99.90;;;;;;5040755;28;20029;-71
2021/06/30 00:53:58;;;;;;;12.55;4.20;;;16.10;99.90;;;;;;5040788;28;20472;-71
2021/06/30 00:56:25;;;;;;;7.63;3.58;;;16.10;99.90;;;;;;5046325;28;20033;-71
2021/06/30 00:58:55;;;;;;;8.23;4.78;;;16.10;99.90;;;;;;5032857;28;20076;-71
2021/06/30 01:01:23;;;;;;;11.90;4.60;;;16.10;99.90;;;;;;5045246;28;20043;-72
2021/06/30 01:03:51;;;;;;;7.25;4.60;;;16.10;99.90;;;;;;5046448;28;20116;-72
2021/06/30 01:06:17;;;;;;;7.18;4.78;;;16.10;99.90;;;;;;5027971;28;20085;-72
2021/06/30 01:08:42;;;;;;;8.77;4.65;;;16.10;99.90;;;;;;5040413;28;20048;-71
2021/06/30 01:11:08;;;;;;;8.40;4.22;;;16.10;99.90;;;;;;5035057;28;20104;-72
2021/06/30 01:13:34;;;;;;;10.65;4.10;;;16.10;99.90;;;;;;5025824;28;20029;-71
2021/06/30 01:16:00;;;;;;;7.57;4.60;;;16.10;99.90;;;;;;5042671;28;20032;-72
2021/06/30 01:18:29;;;;;;;10.27;4.75;;;16.10;99.90;;;;;;5043745;28;20362;-71
2021/06/30 01:20:54;;;;;;;9.50;4.63;;;16.10;99.90;;;;;;5044155;28;20391;-71
2021/06/30 01:23:20;;;;;;;9.20;4.25;;;16.00;99.90;;;;;;5038308;28;20032;-71
2021/06/30 01:25:46;;;;;;;8.15;4.88;;;16.00;99.90;;;;;;5038889;28;20045;-71
2021/06/30 01:28:14;;;;;;;9.23;4.82;;;16.00;99.90;;;;;;5019191;28;20539;-71
2021/06/30 01:30:40;;;;;;;9.48;4.78;;;15.90;99.90;;;;;;5041629;28;20029;-72
2021/06/30 01:33:07;;;;;;;10.05;5.40;;;16.00;99.90;;;;;;5025774;28;20026;-71
2021/06/30 01:35:33;;;;;;;9.35;4.82;;;15.90;99.90;;;;;;5025917;28;20029;-71
2021/06/30 01:38:00;;;;;;;11.43;5.70;;;15.90;99.90;;;;;;5037777;28;20374;-71
2021/06/30 01:40:25;;;;;;;8.48;5.38;;;15.80;99.90;;;;;;5018870;28;20380;-71
2021/06/30 01:42:52;;;;;;;9.43;5.72;;;15.70;99.90;;;;;;5023969;28;20094;-71
2021/06/30 01:45:25;;;;;;;19.63;5.78;;;15.70;99.90;;;;;;5039097;28;20017;-71
2021/06/30 01:47:53;;;;;;;9.00;5.15;;;15.70;99.90;;;;;;5021273;28;20108;-71
2021/06/30 01:50:19;;;;;;;9.05;5.38;;;15.80;99.90;;;;;;5038095;28;20646;-72
2021/06/30 01:52:50;;;;;;;8.80;4.80;;;15.70;99.90;;;;;;5038601;28;20093;-71
2021/06/30 01:55:18;;;;;;;40.63;7.35;;;15.70;99.90;;;;;;5037641;28;20042;-71
2021/06/30 01:57:45;;;;;;;10.60;5.43;;;15.60;99.90;;;;;;5039169;28;20072;-71
2021/06/30 02:00:14;;;;;;;9.43;5.43;;;15.60;99.90;;;;;;5056687;28;20029;-72
2021/06/30 02:02:43;;;;;;;10.70;5.55;;;15.60;99.90;;;;;;5021001;28;20029;-72
2021/06/30 02:05:15;;;;;;;8.70;5.13;;;15.50;99.90;;;;;;5021357;28;20067;-71
2021/06/30 02:07:51;;;;;;;10.93;5.07;;;15.50;99.90;;;;;;5043494;28;20021;-72
2021/06/30 02:10:18;;;;;;;8.70;5.28;;;15.60;99.90;;;;;;5043239;28;20021;-72
2021/06/30 02:12:44;;;;;;;11.32;5.57;;;15.50;99.90;;;;;;5024450;28;20069;-72
2021/06/30 02:15:15;;;;;;;9.32;5.75;;;15.50;99.90;;;;;;5040572;28;20033;-72
2021/06/30 02:17:41;;;;;;;7.03;5.30;;;15.50;99.90;;;;;;5042391;28;20076;-72
2021/06/30 02:20:08;;;;;;;12.10;6.18;;;15.50;99.90;;;;;;5040211;28;20026;-72
2021/06/30 02:22:41;;;;;;;10.73;5.85;;;15.50;99.90;;;;;;5034181;28;20106;-71
2021/06/30 02:25:11;;;;;;;8.73;5.75;;;15.40;99.90;;;;;;5025837;28;20114;-71
2021/06/30 02:27:37;;;;;;;10.00;5.65;;;15.50;99.90;;;;;;5033582;28;20029;-71
2021/06/30 02:30:25;;;;;;;9.63;4.90;;;15.50;99.90;;;;;;5036835;28;20020;-71
2021/06/30 02:32:56;;;;;;;7.45;5.55;;;15.50;99.90;;;;;;5034597;28;20037;-71
2021/06/30 02:35:25;;;;;;;7.95;5.38;;;15.50;99.90;;;;;;5042284;28;20196;-71
2021/06/30 02:37:52;;;;;;;9.60;5.70;;;15.50;99.90;;;;;;5048126;28;20083;-71
2021/06/30 02:40:18;;;;;;;10.10;5.55;;;15.50;99.90;;;;;;5038655;28;20122;-71
2021/06/30 02:42:44;;;;;;;11.90;6.07;;;15.50;99.90;;;;;;5034056;28;20033;-72
2021/06/30 02:45:13;;;;;;;9.75;4.93;;;15.50;99.90;;;;;;5037954;28;20734;-72
2021/06/30 02:47:41;;;;;;;8.82;4.70;;;15.50;99.90;;;;;;5036302;28;20033;-72
2021/06/30 02:50:08;;;;;;;8.70;5.47;;;15.60;99.90;;;;;;5038612;28;20029;-71
2021/06/30 02:52:33;;;;;;;10.85;6.45;;;15.50;99.90;;;;;;5038261;28;20037;-71
2021/06/30 02:55:04;;;;;;;8.25;5.57;;;15.50;99.90;;;;;;5019924;28;20473;-71
2021/06/30 02:57:32;;;;;;;9.30;5.03;;;15.60;99.90;;;;;;5038915;28;20366;-72
2021/06/30 02:59:57;;;;;;;8.77;5.18;;;15.60;99.90;;;;;;5042109;28;20025;-72
2021/06/30 03:02:23;;;;;;;10.32;5.78;;;15.50;99.90;;;;;;5042458;28;20383;-72
2021/06/30 03:04:53;;;;;;;8.60;5.80;;;15.50;99.90;;;;;;5040285;28;20116;-72
2021/06/30 03:07:23;;;;;;;9.07;4.85;;;15.50;99.90;;;;;;5038013;28;20025;-72
2021/06/30 03:09:51;;;;;;;7.93;5.45;;;15.50;99.90;;;;;;5033666;28;20029;-72
2021/06/30 03:12:17;;;;;;;9.50;6.15;;;15.50;99.90;;;;;;5037532;28;20039;-72
2021/06/30 03:14:43;;;;;;;8.00;4.85;;;15.50;99.90;;;;;;5037825;28;20024;-72
2021/06/30 03:17:10;;;;;;;7.13;5.53;;;15.50;99.90;;;;;;5037440;28;21966;-71
2021/06/30 03:19:41;;;;;;;15.15;6.47;;;15.40;99.90;;;;;;5038544;28;20471;-72
2021/06/30 03:22:07;;;;;;;13.45;8.50;;;15.40;99.90;;;;;;5037697;28;20462;-71
2021/06/30 03:24:32;;;;;;;24.67;8.55;;;15.30;99.90;;;;;;5006448;28;20152;-72
2021/06/30 03:26:58;;;;;;;13.38;9.32;;;15.30;99.90;;;;;;5036454;28;20144;-72
2021/06/30 03:29:26;;;;;;;16.55;8.00;;;15.30;99.90;;;;;;5036440;28;20041;-71
2021/06/30 03:31:52;;;;;;;12.93;9.13;;;15.30;99.90;;;;;;5039872;28;20754;-72
2021/06/30 03:34:20;;;;;;;12.73;9.40;;;15.40;99.90;;;;;;5035458;28;20627;-72
2021/06/30 03:36:50;;;;;;;15.50;10.57;;;15.30;99.90;;;;;;5039224;28;20445;-72
2021/06/30 03:39:18;;;;;;;11.95;9.40;;;15.30;99.90;;;;;;5042001;28;20549;-72
2021/06/30 03:41:43;;;;;;;15.60;10.55;;;15.40;99.90;;;;;;5039957;28;20104;-72
2021/06/30 03:44:14;;;;;;;15.63;9.98;;;15.40;99.90;;;;;;5037945;28;20039;-72
2021/06/30 03:46:44;;;;;;;16.92;11.52;;;15.40;99.90;;;;;;5036831;28;20043;-72
2021/06/30 03:49:10;;;;;;;18.98;11.75;;;15.40;99.90;;;;;;5041125;28;20037;-73
2021/06/30 03:51:36;;;;;;;17.08;11.38;;;15.40;99.90;;;;;;5041623;28;20052;-72
2021/06/30 03:54:01;;;;;;;17.17;10.40;;;15.50;99.90;;;;;;5036656;28;20101;-71
2021/06/30 03:56:27;;;;;;;14.90;10.82;;;15.50;99.90;;;;;;5033710;28;20032;-72
2021/06/30 03:58:58;;;;;;;18.00;12.60;;;15.50;99.90;;;;;;5032956;28;20683;-72
2021/06/30 04:01:24;;;;;;;20.02;13.32;;;15.50;99.90;;;;;;5031942;28;20044;-71
2021/06/30 04:03:54;;;;;;;27.45;14.82;;;15.50;99.90;;;;;;5036913;28;20876;-71
2021/06/30 04:06:20;;;;;;;18.88;14.13;;;15.50;99.90;;;;;;5032866;28;20025;-71
2021/06/30 04:08:46;;;;;;;20.52;14.82;;;15.50;99.90;;;;;;5031620;28;20029;-71
2021/06/30 04:11:14;;;;;;;21.33;14.63;;;15.50;99.90;;;;;;5036776;28;20427;-71
2021/06/30 04:13:40;;;;;;;21.02;15.30;;;15.60;99.90;;;;;;5043055;28;20021;-71
2021/06/30 04:16:10;;;;;;;22.50;15.77;;;15.50;99.90;;;;;;5040668;28;20433;-71
2021/06/30 04:18:36;;;;;;;25.67;15.85;;;15.60;99.90;;;;;;5035568;28;20450;-74
2021/06/30 04:21:03;;;;;;;21.95;15.55;;;15.60;99.90;;;;;;5035934;28;20094;-71
2021/06/30 04:23:29;;;;;;;26.17;17.23;;;15.70;99.90;;;;;;5036235;28;20025;-71
2021/06/30 04:25:55;;;;;;;23.10;15.85;;;15.80;99.90;;;;;;5041380;28;20127;-71
2021/06/30 04:28:20;;;;;;;20.67;15.15;;;15.80;99.90;;;;;;5028569;28;20853;-71
2021/06/30 04:30:46;;;;;;;21.33;14.30;;;15.80;99.90;;;;;;5045787;28;20101;-71
2021/06/30 04:33:12;;;;;;;20.65;15.90;;;15.90;99.90;;;;;;5046188;28;20152;-71
2021/06/30 04:35:40;;;;;;;19.83;15.10;;;15.90;99.90;;;;;;5046606;28;20017;-71
2021/06/30 04:38:05;;;;;;;17.95;14.80;;;16.00;99.90;;;;;;5044855;28;20037;-71
2021/06/30 04:40:31;;;;;;;20.05;14.32;;;16.10;99.90;;;;;;5040674;28;20110;-71
2021/06/30 04:42:56;;;;;;;15.60;12.50;;;16.10;99.90;;;;;;5039862;28;20041;-71
2021/06/30 04:45:27;;;;;;;15.32;11.45;;;15.90;99.90;;;;;;5040038;28;20904;-71
2021/06/30 04:47:52;;;;;;;15.45;11.70;;;15.90;99.90;;;;;;5041989;28;20124;-71
2021/06/30 04:50:21;;;;;;;16.75;11.88;;;16.00;99.90;;;;;;5043757;28;20108;-71
2021/06/30 04:52:47;;;;;;;14.88;11.50;;;16.00;99.90;;;;;;5043892;28;20109;-71
2021/06/30 04:55:13;;;;;;;15.05;11.05;;;16.10;99.90;;;;;;5045702;28;20132;-71
2021/06/30 04:57:38;;;;;;;15.57;10.95;;;16.10;99.90;;;;;;5041148;28;20052;-71
2021/06/30 05:00:08;;;;;;;11.70;9.88;;;16.00;99.90;;;;;;5040851;28;20096;-70
2021/06/30 05:02:34;;;;;;;14.90;9.80;;;16.00;99.90;;;;;;5022870;28;20382;-72
2021/06/30 05:05:02;;;;;;;13.23;9.60;;;16.00;99.90;;;;;;5040448;28;20025;-72
2021/06/30 05:07:30;;;;;;;14.43;8.90;;;16.00;99.90;;;;;;5046462;28;20498;-71
2021/06/30 05:09:55;;;;;;;11.77;8.93;;;16.00;99.90;;;;;;5040730;28;20076;-71
2021/06/30 05:12:21;;;;;;;12.60;7.93;;;16.00;99.90;;;;;;5040770;28;20402;-71
2021/06/30 05:14:49;;;;;;;18.23;7.72;;;16.00;99.90;;;;;;5046962;28;20032;-71
2021/06/30 05:17:14;;;;;;;11.98;8.88;;;16.00;99.90;;;;;;5038867;28;20048;-71
2021/06/30 05:19:40;;;;;;;11.38;7.18;;;16.00;99.90;;;;;;5034798;28;20037;-71
2021/06/30 05:22:06;;;;;;;11.23;6.90;;;16.00;99.90;;;;;;5039755;28;20036;-70
2021/06/30 05:24:34;;;;;;;9.77;6.85;;;16.10;99.90;;;;;;5038536;28;20064;-71
2021/06/30 05:27:02;;;;;;;12.30;7.03;;;16.00;99.90;;;;;;5031538;28;20029;-71
2021/06/30 05:29:28;;;;;;;10.48;6.10;;;15.90;99.90;;;;;;5044749;28;20039;-71
2021/06/30 05:31:53;;;;;;;11.98;7.13;;;16.00;99.90;;;;;;5039302;28;20087;-71
2021/06/30 05:34:19;;;;;;;10.00;6.32;;;16.00;99.90;;;;;;5040006;28;20083;-71
2021/06/30 05:36:48;;;;;;;11.18;6.57;;;15.90;99.90;;;;;;5038343;28;20049;-71
2021/06/30 05:39:15;;;;;;;12.75;6.65;;;15.90;99.90;;;;;;5037420;28;20068;-70
2021/06/30 05:41:42;;;;;;;7.75;6.40;;;15.90;99.90;;;;;;5038673;28;20025;-71
2021/06/30 05:44:11;;;;;;;9.93;6.60;;;16.00;99.90;;;;;;5039354;28;20027;-71
2021/06/30 05:46:40;;;;;;;9.82;5.85;;;16.00;99.90;;;;;;5041759;28;20025;-70
2021/06/30 05:49:06;;;;;;;9.52;6.28;;;15.90;99.90;;;;;;5042652;28;20032;-70
2021/06/30 05:51:31;;;;;;;9.93;6.40;;;15.90;99.90;;;;;;5040089;28;20025;-71
2021/06/30 05:53:59;;;;;;;9.60;5.88;;;15.90;99.90;;;;;;5038876;28;20032;-70
2021/06/30 05:56:25;;;;;;;8.75;6.25;;;15.90;99.90;;;;;;5041719;28;20063;-71
2021/06/30 05:58:51;;;;;;;8.85;5.53;;;15.90;99.90;;;;;;5039002;28;20025;-72
2021/06/30 06:01:18;;;;;;;7.57;4.97;;;15.80;99.90;;;;;;5039014;28;20080;-70
2021/06/30 06:03:49;;;;;;;7.57;4.43;;;15.90;99.90;;;;;;5037753;28;20025;-71
2021/06/30 06:06:17;;;;;;;8.10;4.97;;;15.90;99.90;;;;;;5040176;28;20033;-68
2021/06/30 06:08:43;;;;;;;7.07;4.78;;;15.90;99.90;;;;;;5044412;28;20056;-68
2021/06/30 06:11:12;;;;;;;9.18;5.53;;;15.80;99.90;;;;;;5042238;28;20106;-71
2021/06/30 06:13:42;;;;;;;7.72;4.72;;;15.90;99.90;;;;;;5040091;28;20407;-71
2021/06/30 06:16:08;;;;;;;8.10;4.65;;;15.80;99.90;;;;;;5042428;28;20052;-70
2021/06/30 06:18:34;;;;;;;9.82;7.22;;;15.70;99.90;;;;;;5042658;28;20028;-68
2021/06/30 06:21:02;;;;;;;10.02;5.20;;;15.80;99.90;;;;;;5041706;28;20032;-68
2021/06/30 06:23:30;;;;;;;7.55;5.13;;;15.90;99.90;;;;;;5037806;28;20032;-70
2021/06/30 06:25:58;;;;;;;9.05;4.75;;;15.90;99.90;;;;;;5041575;28;22087;-71
2021/06/30 06:28:30;;;;;;;8.88;4.90;;;16.00;99.90;;;;;;5041137;28;20516;-70
2021/06/30 06:31:05;;;;;;;7.95;4.55;;;16.10;99.90;;;;;;5041331;28;20036;-70
2021/06/30 06:33:33;;;;;;;9.77;5.55;;;15.90;99.90;;;;;;5037609;28;20022;-68
2021/06/30 06:36:03;;;;;;;9.68;6.13;;;16.00;99.90;;;;;;5043025;28;20040;-68
2021/06/30 06:38:33;;;;;;;8.27;5.00;;;15.90;99.90;;;;;;5039081;28;20021;-70
2021/06/30 06:40:59;;;;;;;8.45;5.13;;;16.00;99.90;;;;;;5040804;28;20433;-70
2021/06/30 06:43:24;;;;;;;9.82;5.10;;;16.10;99.90;;;;;;5024360;28;20017;-67
2021/06/30 06:45:50;;;;;;;9.23;5.82;;;16.10;99.90;;;;;;5026069;28;20055;-68
2021/06/30 06:48:16;;;;;;;8.02;5.30;;;16.20;99.90;;;;;;5028053;28;20052;-70
2021/06/30 06:50:41;;;;;;;7.03;4.55;;;16.20;99.90;;;;;;5036705;28;20090;-70
2021/06/30 06:53:07;;;;;;;9.00;4.80;;;16.20;99.90;;;;;;5041412;28;20434;-70
2021/06/30 06:55:35;;;;;;;9.90;4.32;;;16.20;99.90;;;;;;5040135;28;20698;-70
2021/06/30 06:58:03;;;;;;;9.38;4.45;;;16.20;99.90;;;;;;5038479;28;20378;-70
2021/06/30 07:00:29;;;;;;;11.07;5.25;;;16.30;99.90;;;;;;5043022;28;20037;-69
2021/06/30 07:02:57;;;;;;;6.90;4.20;;;16.40;99.90;;;;;;5041443;28;20757;-70
2021/06/30 07:05:22;;;;;;;8.80;4.50;;;16.40;99.90;;;;;;5040487;28;20036;-70
2021/06/30 07:07:48;;;;;;;9.38;4.25;;;16.30;99.90;;;;;;5039807;28;20111;-71
2021/06/30 07:10:13;;;;;;;7.90;4.00;;;16.40;99.90;;;;;;5038812;28;20036;-70
2021/06/30 07:12:39;;;;;;;7.22;4.03;;;16.40;99.90;;;;;;5039980;28;20044;-70
2021/06/30 07:15:06;;;;;;;7.10;3.60;;;16.40;99.90;;;;;;5042048;28;20025;-70
2021/06/30 07:17:35;;;;;;;6.78;3.55;;;16.40;99.90;;;;;;5040231;28;20043;-71
2021/06/30 07:20:02;;;;;;;7.90;4.13;;;16.40;99.90;;;;;;5029118;28;20029;-70
2021/06/30 07:22:28;;;;;;;7.88;3.92;;;16.50;99.90;;;;;;5037385;28;20037;-70
2021/06/30 07:24:53;;;;;;;5.57;3.40;;;16.60;99.90;;;;;;5041837;28;20049;-68
2021/06/30 07:27:21;;;;;;;7.57;4.10;;;16.50;99.90;;;;;;5040837;28;20032;-70
2021/06/30 07:29:49;;;;;;;7.30;3.25;;;16.50;99.90;;;;;;5043155;28;20032;-70
2021/06/30 07:32:15;;;;;;;7.45;3.33;;;16.60;99.90;;;;;;5039902;28;20041;-70
2021/06/30 07:34:40;;;;;;;5.90;3.00;;;16.80;99.90;;;;;;5042024;28;20086;-70
2021/06/30 07:37:06;;;;;;;6.30;2.95;;;16.60;99.90;;;;;;5038484;28;20048;-70
2021/06/30 07:39:32;;;;;;;6.05;3.05;;;16.70;99.90;;;;;;5038582;28;20167;-70
2021/06/30 07:42:01;;;;;;;5.32;3.05;;;16.70;99.90;;;;;;5041378;28;20119;-71
2021/06/30 07:44:31;;;;;;;6.30;3.03;;;16.70;99.90;;;;;;5038947;28;20114;-70
2021/06/30 07:46:59;;;;;;;6.30;3.10;;;16.80;99.90;;;;;;5040024;28;20048;-70
2021/06/30 07:49:27;;;;;;;4.55;2.53;;;16.80;99.90;;;;;;5039600;28;20110;-71
2021/06/30 07:51:53;;;;;;;6.13;2.78;;;16.70;99.90;;;;;;5041380;28;20103;-70
2021/06/30 07:54:19;;;;;;;4.07;2.40;;;16.60;99.90;;;;;;5038675;28;20040;-71
2021/06/30 07:56:47;;;;;;;4.65;2.30;;;16.50;99.90;;;;;;5008556;28;20063;-70
2021/06/30 07:59:14;;;;;;;5.65;2.50;;;16.70;99.90;;;;;;5039029;28;20082;-70
2021/06/30 08:01:40;;;;;;;4.82;2.38;;;16.80;99.90;;;;;;5041973;28;20040;-75
2021/06/30 08:04:07;;;;;;;5.10;2.63;;;16.80;99.90;;;;;;5039236;28;20447;-76
2021/06/30 08:06:36;;;;;;;4.53;2.40;;;16.90;99.90;;;;;;5038963;28;20018;-76
2021/06/30 08:09:05;;;;;;;4.43;2.13;;;16.90;99.90;;;;;;5036682;28;20167;-73
2021/06/30 08:11:31;;;;;;;6.28;2.60;;;16.90;99.90;;;;;;5039989;28;20033;-74
2021/06/30 08:13:56;;;;;;;4.35;2.42;;;17.00;99.90;;;;;;5038671;28;20097;-73
2021/06/30 08:16:24;;;;;;;4.22;2.30;;;17.10;99.90;;;;;;5038014;28;20032;-76
2021/06/30 08:18:52;;;;;;;5.28;2.10;;;17.10;99.90;;;;;;5038639;28;20052;-73
2021/06/30 08:21:18;;;;;;;5.30;2.22;;;17.10;99.90;;;;;;5036663;28;20033;-74
2021/06/30 08:23:44;;;;;;;5.45;2.35;;;17.20;99.90;;;;;;5020511;28;20044;-75
2021/06/30 08:26:14;;;;;;;6.55;4.45;;;17.20;99.90;;;;;;5039125;28;20036;-72
2021/06/30 08:28:40;;;;;;;7.18;3.13;;;17.20;99.90;;;;;;5038036;28;20071;-75
2021/06/30 08:31:08;;;;;;;5.28;2.42;;;17.10;99.90;;;;;;5038982;28;20071;-75
2021/06/30 08:33:34;;;;;;;6.20;2.20;;;17.20;99.90;;;;;;5020633;28;20098;-75
2021/06/30 08:36:05;;;;;;;5.95;2.40;;;17.10;99.90;;;;;;5037357;28;20486;-75
2021/06/30 08:38:33;;;;;;;4.97;2.58;;;17.10;99.90;;;;;;5036240;28;20029;-75
2021/06/30 08:41:04;;;;;;;3.97;2.38;;;17.20;99.90;;;;;;5021105;28;20030;-75
2021/06/30 08:43:30;;;;;;;5.60;2.60;;;17.20;99.90;;;;;;5038484;28;20029;-76
2021/06/30 08:45:56;;;;;;;4.82;2.40;;;17.10;99.90;;;;;;5009489;28;20125;-76
2021/06/30 08:48:24;;;;;;;6.13;2.88;;;17.20;99.90;;;;;;5037686;28;20690;-73
2021/06/30 08:50:52;;;;;;;4.43;2.67;;;17.10;99.90;;;;;;5037260;28;20037;-75
2021/06/30 08:53:18;;;;;;;5.82;2.75;;;17.10;99.90;;;;;;5036835;28;20096;-74
2021/06/30 08:55:44;;;;;;;6.90;3.08;;;17.10;99.90;;;;;;5035293;28;20044;-75
2021/06/30 08:58:14;;;;;;;5.90;3.10;;;17.20;99.90;;;;;;5036278;28;20103;-75
2021/06/30 09:00:41;;;;;;;6.20;3.10;;;17.10;99.90;;;;;;5022328;28;20544;-74
2021/06/30 09:03:13;;;;;;;4.57;2.78;;;17.10;99.90;;;;;;5021612;28;20032;-75
2021/06/30 09:08:19;;;;;;;4.80;3.20;;;17.30;99.90;;;;;;5037293;28;20091;-76
2021/06/30 09:10:49;;;;;;;6.85;4.00;;;17.40;99.90;;;;;;5038285;28;20021;-71
2021/06/30 09:13:24;;;;;;;6.18;4.03;;;17.50;99.90;;;;;;5040572;28;20032;-75
2021/06/30 09:15:59;;;;;;;6.32;3.10;;;17.60;99.90;;;;;;5037634;28;20048;-75
2021/06/30 09:18:32;;;;;;;5.60;3.13;;;17.80;99.90;;;;;;5040241;28;20083;-74
2021/06/30 09:21:23;;;;;;;5.13;3.08;;;17.80;99.90;;;;;;5038148;28;20137;-75
2021/06/30 09:24:18;;;;;;;6.90;3.47;;;17.80;99.90;;;;;;5039595;28;20355;-73
2021/06/30 09:26:54;;;;;;;5.95;3.10;;;17.90;99.90;;;;;;5035181;28;20124;-74
2021/06/30 09:29:23;;;;;;;6.00;3.28;;;18.10;99.90;;;;;;5039322;28;20399;-74
2021/06/30 09:31:50;;;;;;;5.13;3.20;;;18.40;99.90;;;;;;5041665;28;20056;-74
2021/06/30 09:34:24;;;;;;;5.03;3.00;;;18.60;99.90;;;;;;5043885;28;20060;-75
2021/06/30 09:36:55;;;;;;;4.10;2.55;;;18.70;99.90;;;;;;5042298;28;20029;-73
2021/06/30 09:39:21;;;;;;;5.68;2.97;;;18.40;99.90;;;;;;5029756;28;20395;-74
2021/06/30 09:41:50;;;;;;;5.38;2.58;;;18.30;99.90;;;;;;5040859;28;20021;-74
2021/06/30 09:44:20;;;;;;;5.60;2.67;;;18.40;99.90;;;;;;5037914;28;20024;-74
2021/06/30 09:46:46;;;;;;;4.90;2.60;;;18.40;99.90;;;;;;5038765;28;20116;-73
2021/06/30 09:49:14;;;;;;;3.97;2.55;;;18.30;99.90;;;;;;5035493;28;20045;-78
2021/06/30 09:51:40;;;;;;;19.55;15.82;;;18.40;99.90;;;;;;5038820;28;20534;-71
2021/06/30 09:54:10;;;;;;;9.23;7.57;;;18.50;99.90;;;;;;5037629;28;20124;-71
2021/06/30 09:56:38;;;;;;;5.30;2.53;;;18.60;99.90;;;;;;5043246;28;20100;-74
2021/06/30 09:59:13;;;;;;;5.88;2.70;;;18.60;99.90;;;;;;5039631;28;20025;-74
2021/06/30 10:01:42;;;;;;;4.47;2.40;;;18.90;99.90;;;;;;5041711;28;21001;-74
2021/06/30 10:04:09;;;;;;;4.97;2.55;;;18.90;99.90;;;;;;5043212;28;20025;-74
2021/06/30 10:06:38;;;;;;;3.60;2.35;;;19.00;99.90;;;;;;5040119;28;20021;-74
2021/06/30 10:09:05;;;;;;;3.80;2.20;;;19.00;99.90;;;;;;5036138;28;20029;-74
2021/06/30 10:11:32;;;;;;;5.20;2.40;;;19.00;99.90;;;;;;5035177;28;20037;-74
2021/06/30 10:13:58;;;;;;;4.93;2.20;;;19.00;99.90;;;;;;5039048;28;20087;-73
2021/06/30 10:16:24;;;;;;;3.80;1.95;;;18.60;99.90;;;;;;5036205;28;20032;-74
2021/06/30 10:18:53;;;;;;;4.15;2.28;;;18.70;99.90;;;;;;5040811;28;20040;-73
2021/06/30 10:21:23;;;;;;;3.03;1.80;;;18.60;99.90;;;;;;5039310;28;20013;-73
2021/06/30 10:23:49;;;;;;;3.83;1.88;;;18.50;99.90;;;;;;5036909;28;20036;-73
2021/06/30 10:26:15;;;;;;;5.78;2.20;;;18.70;99.90;;;;;;5036812;28;20029;-72
2021/06/30 10:28:42;;;;;;;3.13;2.10;;;18.40;99.90;;;;;;5038811;28;20031;-75
2021/06/30 10:31:07;;;;;;;4.15;2.10;;;18.50;99.90;;;;;;5036195;28;20033;-74
2021/06/30 10:33:37;;;;;;;4.10;2.25;;;18.40;99.90;;;;;;5039063;28;20025;-74
2021/06/30 10:36:03;;;;;;;6.25;2.15;;;18.50;99.90;;;;;;5027944;28;20041;-73
2021/06/30 10:38:47;;;;;;;4.05;2.08;;;18.70;99.90;;;;;;5037226;28;20032;-73
2021/06/30 10:41:44;;;;;;;3.47;1.95;;;18.70;99.90;;;;;;5039351;28;20061;-75
2021/06/30 10:44:14;;;;;;;4.35;2.25;;;18.80;99.90;;;;;;5039192;28;20024;-73
2021/06/30 10:46:40;;;;;;;4.28;2.00;;;18.90;99.90;;;;;;5038410;28;20035;-74
2021/06/30 10:49:15;;;;;;;3.33;2.00;;;19.00;99.90;;;;;;4343724;28;10000855;-72
2021/06/30 10:51:47;;;;;;;3.15;1.98;;;18.90;99.90;;;;;;5038448;28;20064;-74
2021/06/30 10:54:34;;;;;;;;;;;19.00;99.90;;;;;;5039744;28;20039;-75
2021/06/30 10:57:26;;;;;;;4.10;2.10;;;18.90;99.90;;;;;;5039530;28;20078;-74
2021/06/30 11:00:00;;;;;;;5.55;2.10;;;19.00;99.90;;;;;;5037245;28;20557;-75
2021/06/30 11:02:31;;;;;;;4.70;2.08;;;19.30;99.90;;;;;;5040982;28;20041;-74
2021/06/30 11:04:59;;;;;;;4.18;2.30;;;19.30;99.90;;;;;;5057862;28;20524;-75
2021/06/30 11:07:34;;;;;;;4.93;2.38;;;19.30;99.90;;;;;;4690015;28;9999699;-74
2021/06/30 11:10:21;;;;;;;3.67;2.00;;;19.10;97.50;;;;;;5036900;28;20069;-75
2021/06/30 11:12:57;;;;;;;4.75;2.20;;;19.20;99.90;;;;;;5038402;28;20112;-74
2021/06/30 11:15:38;;;;;;;3.97;2.03;;;19.20;99.90;;;;;;5037188;28;20024;-74
2021/06/30 11:18:04;;;;;;;;;;;19.40;99.90;;;;;;5037704;28;20698;-72
2021/06/30 11:20:50;;;;;;;6.00;3.97;;;19.50;99.90;;;;;;5026064;28;19916;-70
2021/06/30 11:23:22;;;;;;;3.83;2.28;;;19.30;99.10;;;;;;5038155;28;20021;-73
2021/06/30 11:25:49;;;;;;;4.95;2.35;;;19.20;99.70;;;;;;5032318;28;20037;-74
2021/06/30 11:28:34;;;;;;;3.70;2.20;;;19.20;99.90;;;;;;5039519;28;20112;-74
2021/06/30 11:31:00;;;;;;;5.07;2.42;;;19.20;98.90;;;;;;5038771;28;20105;-75
2021/06/30 11:33:30;;;;;;;3.97;2.10;;;19.30;99.90;;;;;;5039569;28;20064;-75
2021/06/30 11:36:02;;;;;;;4.97;2.20;;;19.30;99.90;;;;;;5038479;28;20032;-74
2021/06/30 11:38:32;;;;;;;3.75;2.20;;;19.30;99.00;;;;;;5038914;28;20024;-74
2021/06/30 11:41:34;;;;;;;4.13;2.10;;;19.60;99.90;;;;;;5038879;28;20442;-74
2021/06/30 11:43:55;;;;;;;4.90;2.20;;;19.80;99.90;;;;;;5035998;28;20049;-74
2021/06/30 11:46:25;;;;;;;6.38;2.20;;;19.70;99.90;;;;;;5039218;28;20397;-74
2021/06/30 11:48:51;;;;;;;4.28;2.05;;;19.50;96.40;;;;;;5037615;28;20026;-73
2021/06/30 11:51:17;;;;;;;3.80;2.13;;;19.50;98.20;;;;;;5036188;28;20024;-74
2021/06/30 11:53:47;;;;;;;3.67;2.20;;;19.50;97.60;;;;;;5037509;28;20021;-74
2021/06/30 11:56:16;;;;;;;4.60;2.20;;;19.50;97.70;;;;;;5035677;28;20485;-75
2021/06/30 11:58:46;;;;;;;5.03;2.25;;;19.50;99.00;;;;;;5040829;28;20036;-74
2021/06/30 12:01:22;;;;;;;5.80;3.30;;;19.60;99.90;;;;;;5037830;28;20061;-70
2021/06/30 12:03:48;;;;;;;3.40;2.13;;;19.40;98.40;;;;;;5039113;28;20148;-73
2021/06/30 12:06:26;;;;;;;4.38;2.20;;;19.30;94.60;;;;;;5024512;28;20517;-73
2021/06/30 12:09:14;;;;;;;3.47;1.88;;;19.30;96.60;;;;;;5036624;28;20029;-74
2021/06/30 12:11:51;;;;;;;4.53;2.00;;;19.00;92.40;;;;;;5035935;28;20579;-75
2021/06/30 12:14:22;;;;;;;3.72;1.90;;;19.10;98.10;;;;;;5058659;28;20045;-74
2021/06/30 12:16:51;;;;;;;4.80;2.03;;;19.10;97.20;;;;;;5038283;28;20107;-73
2021/06/30 12:19:19;;;;;;;4.88;2.00;;;19.00;96.50;;;;;;5040936;28;20033;-74
2021/06/30 12:21:47;;;;;;;3.47;1.90;;;19.00;97.80;;;;;;5037966;28;20108;-73
2021/06/30 12:24:18;;;;;;;4.00;2.00;;;18.90;95.80;;;;;;5037886;28;20120;-73
2021/06/30 12:27:04;;;;;;;6.20;2.40;;;18.80;95.10;;;;;;5041574;28;20156;-74
2021/06/30 12:29:37;;;;;;;3.20;2.10;;;18.80;99.90;;;;;;5039515;28;20718;-74
2021/06/30 12:32:04;;;;;;;4.10;1.90;;;18.60;95.80;;;;;;5034935;28;20025;-74
2021/06/30 12:34:29;;;;;;;4.07;2.20;;;18.50;96.90;;;;;;5037462;28;20078;-74
2021/06/30 12:36:55;;;;;;;3.28;1.90;;;18.50;99.50;;;;;;5041434;28;20040;-74
2021/06/30 12:39:25;;;;;;;4.65;2.10;;;18.50;98.80;;;;;;5040708;28;20494;-74
2021/06/30 12:41:57;;;;;;;3.60;2.00;;;18.50;98.50;;;;;;5032781;28;20040;-73
2021/06/30 12:44:27;;;;;;;4.05;2.10;;;18.60;99.90;;;;;;5033757;28;20030;-73
2021/06/30 12:47:12;;;;;;;4.97;2.10;;;18.60;99.90;;;;;;5034873;28;20095;-73
2021/06/30 12:49:41;;;;;;;3.70;2.13;;;18.80;99.90;;;;;;5042379;28;20028;-73
2021/06/30 12:52:19;;;;;;;3.50;2.30;;;18.70;99.90;;;;;;5042334;28;20021;-74